Taipei Triumph — 9V3478 — position and weather

sailwx.info

Track history (hours):
 
Tides and Currents Weather Stations Pressure Air Temp Water Temp Dewpoint Dewpoint Depression Visibility Wind Speed Wind Dir Waves Ship Positions

Taipei Triumph

Last reported at 2017-Dec-12 02:55 UTC. Time now 2017-Dec-16 01:47 UTC.
Position N 31°08' E 032°19'.

Length 365 m; draft 15.1 m.

Type: Cargo ship. MMSI: 563029900.

Date/timePositionNaut miles runAvg speedWind from/ knotsBaromVisibWave heightAir tempDewpointWater temp
2017-Dec-12 02:55N 31°08' E 032°19'3 7.3
2017-Dec-12 02:30N 31°11' E 032°20'3 6.3
2017-Dec-12 02:00N 31°14' E 032°21'5 9.2
2017-Dec-12 01:27N 31°19' E 032°22'5 9.3
2017-Dec-12 00:54N 31°24' E 032°24'  
2017-Dec-09 14:19N 36°09' E 014°43'618.2
2017-Dec-09 14:00N 36°11' E 014°36'1120.8
2017-Dec-09 13:27N 36°15' E 014°23'714.6
2017-Dec-09 13:00N 36°18' E 014°15'1119.8
2017-Dec-09 12:28N 36°22' E 014°03'715.3
2017-Dec-09 12:00N 36°25' E 013°55'917.8
2017-Dec-09 11:30N 36°28' E 013°45'917.6
2017-Dec-09 11:00N 36°31' E 013°35'  
2017-Dec-04 10:30N 50°12' W 001°41'511.0
2017-Dec-04 10:00N 50°14' W 001°33'510.2
2017-Dec-04 09:30N 50°15' W 001°25'5 9.5
2017-Dec-04 09:00N 50°16' W 001°18'5 9.2
2017-Dec-04 08:30N 50°18' W 001°11'5 8.8
2017-Dec-04 07:57N 50°19' W 001°03'4 9.2
2017-Dec-04 07:30N 50°20' W 000°57'510.1
2017-Dec-04 06:59N 50°21' W 000°49'510.7
2017-Dec-04 06:30N 50°22' W 000°41'711.7
2017-Dec-04 05:54N 50°24' W 000°31'512.7
2017-Dec-04 05:30N 50°26' W 000°23'4 7.1
2017-Dec-04 05:00N 50°27' W 000°18'1 3.0
2017-Dec-04 04:30N 50°26' W 000°16'713.6
2017-Dec-04 04:01N 50°29' W 000°06'918.3
2017-Dec-04 03:31N 50°32' E 000°08'918.3
2017-Dec-04 03:01N 50°34' E 000°22'918.0
2017-Dec-04 02:31N 50°37' E 000°35'917.5
2017-Dec-04 02:01N 50°41' E 000°47'816.8
2017-Dec-04 01:31N 50°46' E 000°58'815.9
2017-Dec-04 01:01N 50°51' E 001°08'714.9
2017-Dec-04 00:30N 50°55' E 001°18'714.0
2017-Dec-04 00:00N 51°00' E 001°25'714.0
2017-Dec-03 23:30N 51°05' E 001°33'714.2
2017-Dec-03 23:01N 51°10' E 001°41'714.9
2017-Dec-03 22:30N 51°16' E 001°48'816.9
2017-Dec-03 22:00N 51°24' E 001°53'917.9
2017-Dec-03 21:30N 51°31' E 002°02'918.8
2017-Dec-03 21:00N 51°38' E 002°12'918.8
2017-Dec-03 20:30N 51°45' E 002°23'2917.1
2017-Dec-03 18:47N 51°58' E 003°05'1717.2
2017-Dec-03 17:47N 52°00' E 003°33'516.9
2017-Dec-03 17:30N 52°01' E 003°40'815.7
2017-Dec-03 17:00N 52°02' E 003°53'2 3.4
2017-Dec-03 16:30N 52°01' E 003°56'4 8.9
2017-Dec-03 16:00N 51°60' E 004°02'3 5.3
2017-Dec-03 15:30N 51°57' E 004°05'1 2.1
2017-Dec-03 14:59N 51°57' E 004°03'0 0.1
2017-Dec-03 14:29N 51°57' E 004°03'0 0.0
2017-Dec-03 13:59N 51°57' E 004°03'0 0.0
2017-Dec-03 13:29N 51°57' E 004°03'0 0.0
2017-Dec-03 12:56N 51°57' E 004°03'0 0.0
2017-Dec-03 12:29N 51°57' E 004°03'0 0.0
2017-Dec-03 11:59N 51°57' E 004°03'0 0.0
2017-Dec-03 11:29N 51°57' E 004°03'0 0.0
2017-Dec-03 10:59N 51°57' E 004°03'0 0.1
2017-Dec-03 10:29N 51°57' E 004°03'0 0.0
2017-Dec-03 09:59N 51°57' E 004°03'0 0.0
2017-Dec-03 09:29N 51°57' E 004°03'0 0.0
2017-Dec-03 08:59N 51°57' E 004°03'0 0.1
2017-Dec-03 08:29N 51°57' E 004°03'0 0.0
2017-Dec-03 07:59N 51°57' E 004°03'0 0.1
2017-Dec-03 07:29N 51°57' E 004°03'0 0.0
2017-Dec-03 06:59N 51°57' E 004°03'0 0.0
2017-Dec-03 06:29N 51°57' E 004°03'0 0.0
2017-Dec-03 05:59N 51°57' E 004°03'0 0.1
2017-Dec-03 05:29N 51°57' E 004°03'0 0.0
2017-Dec-03 04:59N 51°57' E 004°03'0 0.0
2017-Dec-03 04:29N 51°57' E 004°03'0 0.0
2017-Dec-03 03:59N 51°57' E 004°03'0 0.0
2017-Dec-03 03:29N 51°57' E 004°03'0 0.0
2017-Dec-03 02:59N 51°57' E 004°03'0 0.0
2017-Dec-03 02:29N 51°57' E 004°03'0 0.1
2017-Dec-03 01:59N 51°57' E 004°03'0 0.0
2017-Dec-03 01:29N 51°57' E 004°03'0 0.0
2017-Dec-03 00:59N 51°57' E 004°03'0 0.0
2017-Dec-03 00:29N 51°57' E 004°03'0 0.1
2017-Dec-02 23:59N 51°57' E 004°03'0 0.0
2017-Dec-02 23:29N 51°57' E 004°03'0 0.0
2017-Dec-02 22:59N 51°57' E 004°03'0 0.0
2017-Dec-02 22:29N 51°57' E 004°03'0 0.0
2017-Dec-02 21:59N 51°57' E 004°03'0 0.0
2017-Dec-02 21:29N 51°57' E 004°03'0 0.0
2017-Dec-02 20:59N 51°57' E 004°03'0 0.0
2017-Dec-02 20:29N 51°57' E 004°03'0 0.0
2017-Dec-02 19:59N 51°57' E 004°03'0 0.0
2017-Dec-02 19:29N 51°57' E 004°03'0 0.0
2017-Dec-02 18:59N 51°57' E 004°03'0 0.0
2017-Dec-02 18:29N 51°57' E 004°03'0 0.0
2017-Dec-02 17:59N 51°57' E 004°03'0 0.0
2017-Dec-02 17:29N 51°57' E 004°03'0 0.0
2017-Dec-02 16:59N 51°57' E 004°03'0 0.0
2017-Dec-02 16:29N 51°57' E 004°03'0 0.0
2017-Dec-02 15:59N 51°57' E 004°03'0 0.0
2017-Dec-02 15:29N 51°57' E 004°03'0 0.0
2017-Dec-02 14:59N 51°57' E 004°03'0 0.0
2017-Dec-02 14:29N 51°57' E 004°03'0 0.0
2017-Dec-02 13:59N 51°57' E 004°03'0 0.0
2017-Dec-02 13:29N 51°57' E 004°03'0 0.0
2017-Dec-02 12:59N 51°57' E 004°03'0 0.0
2017-Dec-02 12:29N 51°57' E 004°03'0 0.0
2017-Dec-02 11:59N 51°57' E 004°03'0 0.0
2017-Dec-02 11:29N 51°57' E 004°03'0 0.0
2017-Dec-02 10:59N 51°57' E 004°03'0 0.0
2017-Dec-02 10:29N 51°57' E 004°03'0 0.0
2017-Dec-02 09:59N 51°57' E 004°03'0 0.0
2017-Dec-02 09:29N 51°57' E 004°03'0 0.0
2017-Dec-02 08:59N 51°57' E 004°03'0 0.0
2017-Dec-02 08:29N 51°57' E 004°03'0 0.0
2017-Dec-02 07:59N 51°57' E 004°03'0 0.0
2017-Dec-02 07:29N 51°57' E 004°03'0 0.0
2017-Dec-02 06:59N 51°57' E 004°03'0 0.0
2017-Dec-02 06:29N 51°57' E 004°03'0 0.0
2017-Dec-02 05:59N 51°57' E 004°03'0 0.0
2017-Dec-02 05:29N 51°57' E 004°03'0 0.0
2017-Dec-02 04:59N 51°57' E 004°03'0 0.0
2017-Dec-02 04:29N 51°57' E 004°03'0 0.0
2017-Dec-02 03:59N 51°57' E 004°03'0 0.0
2017-Dec-02 03:29N 51°57' E 004°03'0 0.0
2017-Dec-02 02:59N 51°57' E 004°03'  
Track history (hours):
 
Tides and Currents Weather Stations Pressure Air Temp Water Temp Dewpoint Dewpoint Depression Visibility Wind Speed Wind Dir Waves Ship Positions

Taipei Triumph

Last reported at 2017-Dec-12 02:55 UTC. Time now 2017-Dec-16 01:47 UTC.
Position N 31°08' E 032°19'.

Length 365 m; draft 15.1 m.

Type: Cargo ship. MMSI: 563029900.

Date/timePositionNaut miles runAvg speedWind from/ knotsBaromVisibWave heightAir tempDewpointWater temp
2017-Dec-12 02:55N 31°08' E 032°19'3 7.3
2017-Dec-12 02:30N 31°11' E 032°20'3 6.3
2017-Dec-12 02:00N 31°14' E 032°21'5 9.2
2017-Dec-12 01:27N 31°19' E 032°22'5 9.3
2017-Dec-12 00:54N 31°24' E 032°24'  
2017-Dec-09 14:19N 36°09' E 014°43'618.2
2017-Dec-09 14:00N 36°11' E 014°36'1120.8
2017-Dec-09 13:27N 36°15' E 014°23'714.6
2017-Dec-09 13:00N 36°18' E 014°15'1119.8
2017-Dec-09 12:28N 36°22' E 014°03'715.3
2017-Dec-09 12:00N 36°25' E 013°55'917.8
2017-Dec-09 11:30N 36°28' E 013°45'917.6
2017-Dec-09 11:00N 36°31' E 013°35'  
2017-Dec-04 10:30N 50°12' W 001°41'511.0
2017-Dec-04 10:00N 50°14' W 001°33'510.2
2017-Dec-04 09:30N 50°15' W 001°25'5 9.5
2017-Dec-04 09:00N 50°16' W 001°18'5 9.2
2017-Dec-04 08:30N 50°18' W 001°11'5 8.8
2017-Dec-04 07:57N 50°19' W 001°03'4 9.2
2017-Dec-04 07:30N 50°20' W 000°57'510.1
2017-Dec-04 06:59N 50°21' W 000°49'510.7
2017-Dec-04 06:30N 50°22' W 000°41'711.7
2017-Dec-04 05:54N 50°24' W 000°31'512.7
2017-Dec-04 05:30N 50°26' W 000°23'4 7.1
2017-Dec-04 05:00N 50°27' W 000°18'1 3.0
2017-Dec-04 04:30N 50°26' W 000°16'713.6
2017-Dec-04 04:01N 50°29' W 000°06'918.3
2017-Dec-04 03:31N 50°32' E 000°08'918.3
2017-Dec-04 03:01N 50°34' E 000°22'918.0
2017-Dec-04 02:31N 50°37' E 000°35'917.5
2017-Dec-04 02:01N 50°41' E 000°47'816.8
2017-Dec-04 01:31N 50°46' E 000°58'815.9
2017-Dec-04 01:01N 50°51' E 001°08'714.9
2017-Dec-04 00:30N 50°55' E 001°18'714.0
2017-Dec-04 00:00N 51°00' E 001°25'714.0
2017-Dec-03 23:30N 51°05' E 001°33'714.2
2017-Dec-03 23:01N 51°10' E 001°41'714.9
2017-Dec-03 22:30N 51°16' E 001°48'816.9
2017-Dec-03 22:00N 51°24' E 001°53'917.9
2017-Dec-03 21:30N 51°31' E 002°02'918.8
2017-Dec-03 21:00N 51°38' E 002°12'918.8
2017-Dec-03 20:30N 51°45' E 002°23'2917.1
2017-Dec-03 18:47N 51°58' E 003°05'1717.2
2017-Dec-03 17:47N 52°00' E 003°33'516.9
2017-Dec-03 17:30N 52°01' E 003°40'815.7
2017-Dec-03 17:00N 52°02' E 003°53'2 3.4
2017-Dec-03 16:30N 52°01' E 003°56'4 8.9
2017-Dec-03 16:00N 51°60' E 004°02'3 5.3
2017-Dec-03 15:30N 51°57' E 004°05'1 2.1
2017-Dec-03 14:59N 51°57' E 004°03'0 0.1
2017-Dec-03 14:29N 51°57' E 004°03'0 0.0
2017-Dec-03 13:59N 51°57' E 004°03'0 0.0
2017-Dec-03 13:29N 51°57' E 004°03'0 0.0
2017-Dec-03 12:56N 51°57' E 004°03'0 0.0
2017-Dec-03 12:29N 51°57' E 004°03'0 0.0
2017-Dec-03 11:59N 51°57' E 004°03'0 0.0
2017-Dec-03 11:29N 51°57' E 004°03'0 0.0
2017-Dec-03 10:59N 51°57' E 004°03'0 0.1
2017-Dec-03 10:29N 51°57' E 004°03'0 0.0
2017-Dec-03 09:59N 51°57' E 004°03'0 0.0
2017-Dec-03 09:29N 51°57' E 004°03'0 0.0
2017-Dec-03 08:59N 51°57' E 004°03'0 0.1
2017-Dec-03 08:29N 51°57' E 004°03'0 0.0
2017-Dec-03 07:59N 51°57' E 004°03'0 0.1
2017-Dec-03 07:29N 51°57' E 004°03'0 0.0
2017-Dec-03 06:59N 51°57' E 004°03'0 0.0
2017-Dec-03 06:29N 51°57' E 004°03'0 0.0
2017-Dec-03 05:59N 51°57' E 004°03'0 0.1
2017-Dec-03 05:29N 51°57' E 004°03'0 0.0
2017-Dec-03 04:59N 51°57' E 004°03'0 0.0
2017-Dec-03 04:29N 51°57' E 004°03'0 0.0
2017-Dec-03 03:59N 51°57' E 004°03'0 0.0
2017-Dec-03 03:29N 51°57' E 004°03'0 0.0
2017-Dec-03 02:59N 51°57' E 004°03'0 0.0
2017-Dec-03 02:29N 51°57' E 004°03'0 0.1
2017-Dec-03 01:59N 51°57' E 004°03'0 0.0
2017-Dec-03 01:29N 51°57' E 004°03'0 0.0
2017-Dec-03 00:59N 51°57' E 004°03'0 0.0
2017-Dec-03 00:29N 51°57' E 004°03'0 0.1
2017-Dec-02 23:59N 51°57' E 004°03'0 0.0
2017-Dec-02 23:29N 51°57' E 004°03'0 0.0
2017-Dec-02 22:59N 51°57' E 004°03'0 0.0
2017-Dec-02 22:29N 51°57' E 004°03'0 0.0
2017-Dec-02 21:59N 51°57' E 004°03'0 0.0
2017-Dec-02 21:29N 51°57' E 004°03'0 0.0
2017-Dec-02 20:59N 51°57' E 004°03'0 0.0
2017-Dec-02 20:29N 51°57' E 004°03'0 0.0
2017-Dec-02 19:59N 51°57' E 004°03'0 0.0
2017-Dec-02 19:29N 51°57' E 004°03'0 0.0
2017-Dec-02 18:59N 51°57' E 004°03'0 0.0
2017-Dec-02 18:29N 51°57' E 004°03'0 0.0
2017-Dec-02 17:59N 51°57' E 004°03'0 0.0
2017-Dec-02 17:29N 51°57' E 004°03'0 0.0
2017-Dec-02 16:59N 51°57' E 004°03'0 0.0
2017-Dec-02 16:29N 51°57' E 004°03'0 0.0
2017-Dec-02 15:59N 51°57' E 004°03'0 0.0
2017-Dec-02 15:29N 51°57' E 004°03'0 0.0
2017-Dec-02 14:59N 51°57' E 004°03'0 0.0
2017-Dec-02 14:29N 51°57' E 004°03'0 0.0
2017-Dec-02 13:59N 51°57' E 004°03'0 0.0
2017-Dec-02 13:29N 51°57' E 004°03'0 0.0
2017-Dec-02 12:59N 51°57' E 004°03'0 0.0
2017-Dec-02 12:29N 51°57' E 004°03'0 0.0
2017-Dec-02 11:59N 51°57' E 004°03'0 0.0
2017-Dec-02 11:29N 51°57' E 004°03'0 0.0
2017-Dec-02 10:59N 51°57' E 004°03'0 0.0
2017-Dec-02 10:29N 51°57' E 004°03'0 0.0
2017-Dec-02 09:59N 51°57' E 004°03'0 0.0
2017-Dec-02 09:29N 51°57' E 004°03'0 0.0
2017-Dec-02 08:59N 51°57' E 004°03'0 0.0
2017-Dec-02 08:29N 51°57' E 004°03'0 0.0
2017-Dec-02 07:59N 51°57' E 004°03'0 0.0
2017-Dec-02 07:29N 51°57' E 004°03'0 0.0
2017-Dec-02 06:59N 51°57' E 004°03'0 0.0
2017-Dec-02 06:29N 51°57' E 004°03'0 0.0
2017-Dec-02 05:59N 51°57' E 004°03'0 0.0
2017-Dec-02 05:29N 51°57' E 004°03'0 0.0
2017-Dec-02 04:59N 51°57' E 004°03'0 0.0
2017-Dec-02 04:29N 51°57' E 004°03'0 0.0
2017-Dec-02 03:59N 51°57' E 004°03'0 0.0
2017-Dec-02 03:29N 51°57' E 004°03'0 0.0
2017-Dec-02 02:59N 51°57' E 004°03'  

Dump ship's entire track history